^^
Station Historical Data
Daily Summary for Nil La, TWC- Units:  Metric    English   Both
« Previous Day
Next Day »
Daily Weekly Monthly Yearly Custom
  High: Low: Average:
Temperature: -17.8 °C 18.6 °C 20.3 °C
Dew Point: -17.8 °C 9.8 °C 10.9 °C
Humidity: Humidity% 48% 54%
Wind Speed: 0km/h 0km/h 0.5km/h
Wind Gust: 0km/h - -
Wind- - East
Pressure: 0 hPa 1008.7 hPa -
Precipitation: 0 mm    
Historical Graphs
 
 
Tabular Data for Nil La, TWC-
Time Temperature Dew Point Pressure Wind Wind Speed Wind Gust Humidity Rainfall Rate (Hourly) solar Conditions
-17.8 °C -17.8 °C 0 hPa Calm     Humidity% 0 mm SolarRadiationWatts/m^2 W/m2 Conditions
00:04 21.4 °C 12.5 °C 1009 hPa Calm     57% 0 mm 0.00 W/m2
00:09 21.4 °C 12.8 °C 1009 hPa Calm     58% 0 mm 0.00 W/m2
00:14 21.3 °C 12.7 °C 1009 hPa Calm     58% 0 mm 0.00 W/m2
00:19 21.3 °C 12.7 °C 1009 hPa Calm     58% 0 mm 0.00 W/m2
00:24 21.3 °C 13 °C 1009 hPa Calm   3.2 km/h 59% 0 mm 0.00 W/m2
00:29 21.3 °C 13 °C 1009 hPa Calm     59% 0 mm 0.00 W/m2
00:34 21.3 °C 12.7 °C 1009 hPa Calm   1.6 km/h 58% 0 mm 0.00 W/m2
00:39 21.3 °C 13 °C 1009 hPa Calm   1.6 km/h 59% 0 mm 0.00 W/m2
00:43 21.3 °C 13 °C 1009 hPa Calm   1.6 km/h 59% 0 mm 0.00 W/m2
00:49 21.2 °C 12.9 °C 1009 hPa Calm   1.6 km/h 59% 0 mm 0.00 W/m2
00:54 21.2 °C 12.6 °C 1009 hPa Calm   1.6 km/h 58% 0 mm 0.00 W/m2
00:59 21.2 °C 12.3 °C 1009 hPa Calm   3.2 km/h 57% 0 mm 0.00 W/m2
01:04 21.3 °C 12.2 °C 1008.7 hPa Calm   1.6 km/h 56% 0 mm 0.00 W/m2
01:09 21.3 °C 12.2 °C 1008.7 hPa Calm   1.6 km/h 56% 0 mm 0.00 W/m2
01:14 21.4 °C 12 °C 1008.7 hPa Calm   1.6 km/h 55% 0 mm 0.00 W/m2
01:19 21.4 °C 12.3 °C 1008.7 hPa Calm   1.6 km/h 56% 0 mm 0.00 W/m2
01:24 21.4 °C 12.3 °C 1009 hPa Calm     56% 0 mm 0.00 W/m2
01:28 21.3 °C 11.9 °C 1009 hPa Calm     55% 0 mm 0.00 W/m2
01:34 21.3 °C 11.3 °C 1009 hPa SE 1.4 km/h 3.2 km/h 53% 0 mm 0.00 W/m2
01:39 21.2 °C 10.7 °C 1009 hPa Calm   4.8 km/h 51% 0 mm 0.00 W/m2
01:44 21.2 °C 10.4 °C 1008.7 hPa SE 1.4 km/h 3.2 km/h 50% 0 mm 0.00 W/m2
01:49 21.3 °C 10.2 °C 1008.7 hPa Calm     49% 0 mm 0.00 W/m2
01:54 21.3 °C 10.2 °C 1008.7 hPa Calm     49% 0 mm 0.00 W/m2
01:59 21.3 °C 10.2 °C 1008.7 hPa Calm   1.6 km/h 49% 0 mm 0.00 W/m2
02:04 21.3 °C 9.8 °C 1008.7 hPa Calm   1.6 km/h 48% 0 mm 0.00 W/m2
02:09 21.4 °C 10.2 °C 1008.7 hPa Calm   1.6 km/h 49% 0 mm 0.00 W/m2
02:14 21.4 °C 10.2 °C 1008.7 hPa Calm   1.6 km/h 49% 0 mm 0.00 W/m2
02:19 21.4 °C 10.2 °C 1008.7 hPa Calm   1.6 km/h 49% 0 mm 0.00 W/m2
02:23 21.4 °C 10.2 °C 1008.7 hPa Calm   3.2 km/h 49% 0 mm 0.00 W/m2
02:29 21.4 °C 10.2 °C 1008.7 hPa Calm   3.2 km/h 49% 0 mm 0.00 W/m2
02:34 21.4 °C 10.5 °C 1008.7 hPa Calm   3.2 km/h 50% 0 mm 0.00 W/m2
02:39 21.4 °C 11.1 °C 1009 hPa Calm   3.2 km/h 52% 0 mm 0.00 W/m2
02:44 21.4 °C 11.4 °C 1009 hPa Calm   1.6 km/h 53% 0 mm 0.00 W/m2
02:49 21.4 °C 11.7 °C 1008.7 hPa ESE 4.7 km/h 6.4 km/h 54% 0 mm 0.00 W/m2
02:54 21.4 °C 12 °C 1008.7 hPa Calm   3.2 km/h 55% 0 mm 0.00 W/m2
02:59 21.4 °C 12 °C 1008.7 hPa ENE 1.4 km/h 3.2 km/h 55% 0 mm 0.00 W/m2
03:04 21.4 °C 12 °C 1008.7 hPa ENE 1.4 km/h 1.6 km/h 55% 0 mm 0.00 W/m2
03:09 21.4 °C 11.4 °C 1009 hPa NE 3.2 km/h 3.2 km/h 53% 0 mm 0.00 W/m2
03:14 21.4 °C 10.8 °C 1009 hPa ENE 4.7 km/h 6.4 km/h 51% 0 mm 0.00 W/m2
03:19 21.3 °C 10.8 °C 1009 hPa Calm   1.6 km/h 51% 0 mm 0.00 W/m2
03:24 21.3 °C 10.8 °C 1009 hPa East 1.4 km/h 4.8 km/h 51% 0 mm 0.00 W/m2
03:29 21.3 °C 10.5 °C 1009 hPa Calm   3.2 km/h 50% 0 mm 0.00 W/m2
03:34 21.3 °C 10.5 °C 1009 hPa Calm     50% 0 mm 0.00 W/m2
03:39 21.3 °C 10.2 °C 1009 hPa Calm   1.6 km/h 49% 0 mm 0.00 W/m2
03:44 21.3 °C 10.2 °C 1009 hPa Calm     49% 0 mm 0.00 W/m2
03:49 21.2 °C 10.4 °C 1009 hPa Calm     50% 0 mm 0.00 W/m2
03:54 21.2 °C 10.4 °C 1009 hPa Calm   1.6 km/h 50% 0 mm 0.00 W/m2
03:59 21.1 °C 10.6 °C 1009 hPa Calm   1.6 km/h 51% 0 mm 0.00 W/m2
04:03 21.1 °C 10.6 °C 1009 hPa Calm   1.6 km/h 51% 0 mm 0.00 W/m2
04:09 21.1 °C 10.6 °C 1009 hPa Calm   1.6 km/h 51% 0 mm 0.00 W/m2
04:13 20.9 °C 10.4 °C 1009.4 hPa Calm   1.6 km/h 51% 0 mm 0.00 W/m2
04:19 20.8 °C 10.6 °C 1009.4 hPa Calm   1.6 km/h 52% 0 mm 0.00 W/m2
04:24 20.7 °C 10.8 °C 1009.4 hPa Calm   3.2 km/h 53% 0 mm 0.00 W/m2
04:29 20.6 °C 11 °C 1009.4 hPa Calm   1.6 km/h 54% 0 mm 0.00 W/m2
04:34 20.5 °C 10.9 °C 1009.4 hPa Calm   1.6 km/h 54% 0 mm 0.00 W/m2
04:39 20.4 °C 11.3 °C 1009.4 hPa ESE 4.7 km/h 4.8 km/h 56% 0 mm 0.00 W/m2
04:44 20.2 °C 11.1 °C 1009.4 hPa Calm   3.2 km/h 56% 0 mm 0.00 W/m2
04:49 20.1 °C 11.3 °C 1009.7 hPa Calm   1.6 km/h 57% 0 mm 0.00 W/m2
04:54 19.9 °C 11.4 °C 1009.7 hPa Calm   3.2 km/h 58% 0 mm 0.00 W/m2
04:59 19.8 °C 11.6 °C 1009.7 hPa Calm   1.6 km/h 59% 0 mm 0.00 W/m2
05:04 19.7 °C 11.5 °C 1009.7 hPa Calm   3.2 km/h 59% 0 mm 0.00 W/m2
05:09 19.6 °C 11.4 °C 1009.7 hPa Calm   1.6 km/h 59% 0 mm 0.00 W/m2
05:14 19.4 °C 11.2 °C 1009.7 hPa ESE 1.4 km/h 1.6 km/h 59% 0 mm 0.00 W/m2
05:19 19.4 °C 11.4 °C 1010 hPa Calm     60% 0 mm 0.00 W/m2
05:24 19.3 °C 11.3 °C 1010 hPa Calm   1.6 km/h 60% 0 mm 0.00 W/m2
05:29 19.2 °C 11.2 °C 1010 hPa ESE 1.4 km/h 1.6 km/h 60% 0 mm 0.00 W/m2
05:34 19.1 °C 11.2 °C 1010 hPa Calm   1.6 km/h 60% 0 mm 0.00 W/m2
05:39 18.9 °C 11.2 °C 1010 hPa ESE 3.2 km/h 4.8 km/h 61% 0 mm 0.00 W/m2
05:43 18.9 °C 11.5 °C 1010 hPa Calm   4.8 km/h 62% 0 mm 0.00 W/m2
05:49 18.8 °C 11.6 °C 1010 hPa Calm   1.6 km/h 63% 0 mm 0.00 W/m2
05:54 18.7 °C 11.5 °C 1010 hPa Calm   3.2 km/h 63% 0 mm 0.00 W/m2
05:59 18.6 °C 11.7 °C 1010 hPa ESE 1.4 km/h 1.6 km/h 64% 0 mm 0.00 W/m2
Olympia, Windhoek, Namibia
Compliments of Weather Underground - 2.25 mb